sensor_id;sensor_type;location;lat;lon;timestamp;pressure;altitude;pressure_sealevel;temperature;humidity
596;BME280;19946;49.306;11.350;2023-01-16T00:00:35;95338.56;;;-1.55;100.00
596;BME280;19946;49.306;11.350;2023-01-16T00:03:36;95316.03;;;-1.61;100.00
596;BME280;19946;49.306;11.350;2023-01-16T00:06:36;95311.31;;;-1.37;100.00
596;BME280;19946;49.306;11.350;2023-01-16T00:09:39;95234.28;;;-1.82;100.00
596;BME280;19946;49.306;11.350;2023-01-16T00:12:40;95267.91;;;-1.63;100.00
596;BME280;19946;49.306;11.350;2023-01-16T00:15:49;95290.41;;;-1.57;100.00
596;BME280;19946;49.306;11.350;2023-01-16T00:18:49;95229.41;;;-1.85;100.00
596;BME280;19946;49.306;11.350;2023-01-16T00:21:50;95216.53;;;-1.82;100.00
596;BME280;19946;49.306;11.350;2023-01-16T00:24:50;95259.78;;;-1.54;100.00
596;BME280;19946;49.306;11.350;2023-01-16T00:27:50;95247.78;;;-1.66;100.00
596;BME280;19946;49.306;11.350;2023-01-16T00:30:50;95240.84;;;-1.78;100.00
596;BME280;19946;49.306;11.350;2023-01-16T00:33:51;95271.50;;;-1.67;100.00
596;BME280;19946;49.306;11.350;2023-01-16T00:36:51;95235.06;;;-1.96;100.00
596;BME280;19946;49.306;11.350;2023-01-16T00:39:52;95113.53;;;-2.76;100.00
596;BME280;19946;49.306;11.350;2023-01-16T00:42:52;95260.00;;;-1.88;100.00
596;BME280;19946;49.306;11.350;2023-01-16T00:45:52;95243.25;;;-1.61;100.00
596;BME280;19946;49.306;11.350;2023-01-16T00:48:53;95234.25;;;-1.66;100.00
596;BME280;19946;49.306;11.350;2023-01-16T00:51:53;95157.03;;;-2.06;100.00
596;BME280;19946;49.306;11.350;2023-01-16T00:54:54;95137.81;;;-2.26;100.00
596;BME280;19946;49.306;11.350;2023-01-16T00:57:54;95176.97;;;-2.00;100.00
596;BME280;19946;49.306;11.350;2023-01-16T01:00:54;95194.13;;;-2.05;100.00
596;BME280;19946;49.306;11.350;2023-01-16T01:03:55;95153.16;;;-2.13;100.00
596;BME280;19946;49.306;11.350;2023-01-16T01:06:55;95213.66;;;-1.76;100.00
596;BME280;19946;49.306;11.350;2023-01-16T01:09:55;95154.72;;;-2.11;100.00
596;BME280;19946;49.306;11.350;2023-01-16T01:12:57;95169.41;;;-1.86;100.00
596;BME280;19946;49.306;11.350;2023-01-16T01:15:57;95222.91;;;-1.45;100.00
596;BME280;19946;49.306;11.350;2023-01-16T03:21:10;94995.13;;;-1.71;100.00
596;BME280;19946;49.306;11.350;2023-01-16T07:38:17;94333.00;;;-2.22;100.00
596;BME280;19946;49.306;11.350;2023-01-16T07:41:19;94353.28;;;-2.22;100.00
596;BME280;19946;49.306;11.350;2023-01-16T07:58:02;94245.94;;;-2.10;100.00
596;BME280;19946;49.306;11.350;2023-01-16T08:08:42;94165.06;;;-2.26;100.00
596;BME280;19946;49.306;11.350;2023-01-16T08:11:54;94102.72;;;-2.63;100.00
596;BME280;19946;49.306;11.350;2023-01-16T08:15:25;94198.34;;;-1.71;100.00
596;BME280;19946;49.306;11.350;2023-01-16T08:18:32;94102.59;;;-2.27;100.00
596;BME280;19946;49.306;11.350;2023-01-16T09:18:43;94251.50;;;1.84;100.00
596;BME280;19946;49.306;11.350;2023-01-16T09:21:43;94213.53;;;1.81;100.00
596;BME280;19946;49.306;11.350;2023-01-16T09:24:44;94021.91;;;0.77;100.00
596;BME280;19946;49.306;11.350;2023-01-16T09:27:44;94239.09;;;2.39;100.00
596;BME280;19946;49.306;11.350;2023-01-16T09:30:46;94210.88;;;2.22;100.00
596;BME280;19946;49.306;11.350;2023-01-16T09:33:46;94100.94;;;1.75;100.00
596;BME280;19946;49.306;11.350;2023-01-16T09:36:48;94162.78;;;2.27;100.00
596;BME280;19946;49.306;11.350;2023-01-16T09:39:48;94185.94;;;2.81;100.00
596;BME280;19946;49.306;11.350;2023-01-16T09:42:59;94209.72;;;3.38;100.00
596;BME280;19946;49.306;11.350;2023-01-16T09:46:29;94171.97;;;3.22;100.00
596;BME280;19946;49.306;11.350;2023-01-16T09:49:47;94186.38;;;3.14;100.00
596;BME280;19946;49.306;11.350;2023-01-16T09:52:49;94184.44;;;2.88;100.00
596;BME280;19946;49.306;11.350;2023-01-16T09:56:10;94161.44;;;2.88;100.00
596;BME280;19946;49.306;11.350;2023-01-16T09:59:34;94074.81;;;2.48;100.00
596;BME280;19946;49.306;11.350;2023-01-16T10:02:36;94153.91;;;2.87;100.00
596;BME280;19946;49.306;11.350;2023-01-16T10:05:45;94136.81;;;2.87;100.00
596;BME280;19946;49.306;11.350;2023-01-16T10:12:09;94114.31;;;3.01;100.00
596;BME280;19946;49.306;11.350;2023-01-16T10:15:21;94046.72;;;2.48;100.00
596;BME280;19946;49.306;11.350;2023-01-16T10:18:39;94126.19;;;3.19;100.00
596;BME280;19946;49.306;11.350;2023-01-16T10:21:55;94098.03;;;3.02;100.00
596;BME280;19946;49.306;11.350;2023-01-16T10:28:18;93920.78;;;2.38;100.00
596;BME280;19946;49.306;11.350;2023-01-16T10:31:41;94048.88;;;3.08;100.00
596;BME280;19946;49.306;11.350;2023-01-16T10:35:06;94094.00;;;3.26;100.00
596;BME280;19946;49.306;11.350;2023-01-16T10:38:22;94036.09;;;3.08;100.00
596;BME280;19946;49.306;11.350;2023-01-16T10:41:49;94059.84;;;3.45;100.00
596;BME280;19946;49.306;11.350;2023-01-16T10:45:13;93981.56;;;3.35;100.00
596;BME280;19946;49.306;11.350;2023-01-16T10:48:33;94049.06;;;3.59;100.00
596;BME280;19946;49.306;11.350;2023-01-16T10:51:52;93978.09;;;2.26;100.00
596;BME280;19946;49.306;11.350;2023-01-16T11:01:24;94026.47;;;2.37;100.00
596;BME280;19946;49.306;11.350;2023-01-16T11:04:33;94032.06;;;2.78;100.00
596;BME280;19946;49.306;11.350;2023-01-16T11:07:34;93893.34;;;2.40;100.00
596;BME280;19946;49.306;11.350;2023-01-16T11:10:35;93938.88;;;2.72;100.00
596;BME280;19946;49.306;11.350;2023-01-16T11:13:35;93954.19;;;2.54;100.00
596;BME280;19946;49.306;11.350;2023-01-16T11:24:14;93946.47;;;2.64;100.00
596;BME280;19946;49.306;11.350;2023-01-16T11:27:19;93926.41;;;2.69;100.00
596;BME280;19946;49.306;11.350;2023-01-16T11:30:27;93769.56;;;1.99;100.00
596;BME280;19946;49.306;11.350;2023-01-16T11:33:34;93871.41;;;3.18;100.00
596;BME280;19946;49.306;11.350;2023-01-16T11:36:37;93824.63;;;3.00;100.00
596;BME280;19946;49.306;11.350;2023-01-16T11:39:39;93819.13;;;2.95;100.00
596;BME280;19946;49.306;11.350;2023-01-16T11:42:51;93880.03;;;3.35;100.00
596;BME280;19946;49.306;11.350;2023-01-16T11:46:33;93877.63;;;3.59;100.00
596;BME280;19946;49.306;11.350;2023-01-16T11:49:37;93843.72;;;3.32;100.00
596;BME280;19946;49.306;11.350;2023-01-16T11:52:38;93732.44;;;2.40;100.00
596;BME280;19946;49.306;11.350;2023-01-16T11:55:49;93841.56;;;3.01;100.00
596;BME280;19946;49.306;11.350;2023-01-16T11:59:10;93770.13;;;2.56;100.00
596;BME280;19946;49.306;11.350;2023-01-16T12:15:36;93670.72;;;2.71;100.00
596;BME280;19946;49.306;11.350;2023-01-16T12:25:33;93558.16;;;2.12;100.00
596;BME280;19946;49.306;11.350;2023-01-16T12:40:02;93722.03;;;3.63;100.00
596;BME280;19946;49.306;11.350;2023-01-16T12:53:07;93738.34;;;3.62;100.00
596;BME280;19946;49.306;11.350;2023-01-16T12:56:33;93745.03;;;3.55;100.00
596;BME280;19946;49.306;11.350;2023-01-16T12:59:41;93742.66;;;3.61;100.00
596;BME280;19946;49.306;11.350;2023-01-16T13:02:55;93686.81;;;3.15;100.00
596;BME280;19946;49.306;11.350;2023-01-16T13:09:21;93636.56;;;2.72;100.00
596;BME280;19946;49.306;11.350;2023-01-16T13:12:26;93739.19;;;3.37;100.00
596;BME280;19946;49.306;11.350;2023-01-16T13:15:57;93681.63;;;2.99;100.00
596;BME280;19946;49.306;11.350;2023-01-16T13:19:03;93661.72;;;2.84;100.00
596;BME280;19946;49.306;11.350;2023-01-16T13:25:17;93697.94;;;3.06;100.00
596;BME280;19946;49.306;11.350;2023-01-16T13:28:29;93676.66;;;2.97;100.00
596;BME280;19946;49.306;11.350;2023-01-16T13:31:39;93742.34;;;3.05;100.00
596;BME280;19946;49.306;11.350;2023-01-16T13:34:48;93765.97;;;2.99;100.00
596;BME280;19946;49.306;11.350;2023-01-16T13:41:23;93733.53;;;3.25;100.00
596;BME280;19946;49.306;11.350;2023-01-16T13:44:28;93716.78;;;3.05;100.00
596;BME280;19946;49.306;11.350;2023-01-16T13:47:49;93756.84;;;2.96;100.00
596;BME280;19946;49.306;11.350;2023-01-16T13:50:57;93739.53;;;3.16;100.00
596;BME280;19946;49.306;11.350;2023-01-16T13:57:20;93733.28;;;3.10;100.00
596;BME280;19946;49.306;11.350;2023-01-16T14:00:22;93688.38;;;2.82;100.00
596;BME280;19946;49.306;11.350;2023-01-16T14:03:31;93604.00;;;2.22;100.00
596;BME280;19946;49.306;11.350;2023-01-16T14:14:49;93683.47;;;2.88;100.00
596;BME280;19946;49.306;11.350;2023-01-16T14:18:18;93646.75;;;2.64;100.00
596;BME280;19946;49.306;11.350;2023-01-16T14:21:23;93620.94;;;2.49;100.00
596;BME280;19946;49.306;11.350;2023-01-16T14:24:24;93668.00;;;2.90;100.00
596;BME280;19946;49.306;11.350;2023-01-16T14:27:34;93587.22;;;2.37;100.00
596;BME280;19946;49.306;11.350;2023-01-16T14:30:38;93565.59;;;2.32;100.00
596;BME280;19946;49.306;11.350;2023-01-16T14:33:43;93679.72;;;3.01;100.00
596;BME280;19946;49.306;11.350;2023-01-16T14:36:50;93611.28;;;2.61;100.00
596;BME280;19946;49.306;11.350;2023-01-16T14:39:57;93665.44;;;2.90;100.00
596;BME280;19946;49.306;11.350;2023-01-16T14:43:01;93586.31;;;2.46;100.00
596;BME280;19946;49.306;11.350;2023-01-16T14:49:58;93525.41;;;2.08;100.00
596;BME280;19946;49.306;11.350;2023-01-16T14:53:20;93608.28;;;2.65;100.00
596;BME280;19946;49.306;11.350;2023-01-16T14:56:40;93621.66;;;2.59;100.00
596;BME280;19946;49.306;11.350;2023-01-16T15:00:10;93606.63;;;2.56;100.00
596;BME280;19946;49.306;11.350;2023-01-16T15:03:34;93619.94;;;2.68;100.00
596;BME280;19946;49.306;11.350;2023-01-16T15:06:44;93566.94;;;2.36;100.00
596;BME280;19946;49.306;11.350;2023-01-16T15:09:49;93600.91;;;2.62;100.00
596;BME280;19946;49.306;11.350;2023-01-16T15:12:50;93625.72;;;2.70;100.00
596;BME280;19946;49.306;11.350;2023-01-16T15:15:57;93620.91;;;2.67;100.00
596;BME280;19946;49.306;11.350;2023-01-16T15:18:58;93532.91;;;2.09;100.00
596;BME280;19946;49.306;11.350;2023-01-16T15:22:37;93597.94;;;2.49;100.00
596;BME280;19946;49.306;11.350;2023-01-16T15:25:51;93466.41;;;1.41;100.00
596;BME280;19946;49.306;11.350;2023-01-16T15:32:12;93582.50;;;2.25;100.00
596;BME280;19946;49.306;11.350;2023-01-16T15:35:18;93524.91;;;2.04;100.00
596;BME280;19946;49.306;11.350;2023-01-16T15:38:25;93594.41;;;2.42;100.00
596;BME280;19946;49.306;11.350;2023-01-16T15:41:31;93579.03;;;2.34;100.00
596;BME280;19946;49.306;11.350;2023-01-16T15:44:51;93575.78;;;2.24;100.00
596;BME280;19946;49.306;11.350;2023-01-16T15:48:24;93567.19;;;2.07;100.00
596;BME280;19946;49.306;11.350;2023-01-16T15:51:31;93592.91;;;2.31;100.00
596;BME280;19946;49.306;11.350;2023-01-16T15:54:31;93589.50;;;2.23;100.00
596;BME280;19946;49.306;11.350;2023-01-16T15:57:32;93520.38;;;1.72;100.00
596;BME280;19946;49.306;11.350;2023-01-16T16:00:35;93541.72;;;1.89;100.00
596;BME280;19946;49.306;11.350;2023-01-16T16:03:39;93599.19;;;2.19;100.00
596;BME280;19946;49.306;11.350;2023-01-16T16:06:41;93576.53;;;1.98;100.00
596;BME280;19946;49.306;11.350;2023-01-16T16:09:43;93588.03;;;2.20;100.00
596;BME280;19946;49.306;11.350;2023-01-16T16:22:43;93486.09;;;1.49;100.00
596;BME280;19946;49.306;11.350;2023-01-16T16:32:23;93341.91;;;0.67;100.00
596;BME280;19946;49.306;11.350;2023-01-16T16:35:31;93498.28;;;1.81;100.00
596;BME280;19946;49.306;11.350;2023-01-16T16:38:42;93543.34;;;2.16;100.00
596;BME280;19946;49.306;11.350;2023-01-16T16:41:47;93475.66;;;1.86;100.00
596;BME280;19946;49.306;11.350;2023-01-16T16:45:34;93458.66;;;1.69;100.00
596;BME280;19946;49.306;11.350;2023-01-16T16:48:37;93528.81;;;2.16;100.00
596;BME280;19946;49.306;11.350;2023-01-16T16:51:38;93492.44;;;2.14;100.00
596;BME280;19946;49.306;11.350;2023-01-16T16:54:38;93383.94;;;1.51;100.00
596;BME280;19946;49.306;11.350;2023-01-16T16:57:42;93433.03;;;1.78;100.00
596;BME280;19946;49.306;11.350;2023-01-16T17:10:51;93411.22;;;1.84;100.00
596;BME280;19946;49.306;11.350;2023-01-16T17:17:14;93426.38;;;1.86;100.00
596;BME280;19946;49.306;11.350;2023-01-16T17:20:19;93403.44;;;1.60;100.00
596;BME280;19946;49.306;11.350;2023-01-16T17:23:20;93458.19;;;1.99;100.00
596;BME280;19946;49.306;11.350;2023-01-16T17:26:22;93436.00;;;1.92;100.00
596;BME280;19946;49.306;11.350;2023-01-16T17:29:22;93277.72;;;0.82;100.00
596;BME280;19946;49.306;11.350;2023-01-16T17:32:29;93364.84;;;1.29;100.00
596;BME280;19946;49.306;11.350;2023-01-16T17:35:29;93399.72;;;1.28;100.00
